Time;durP1;ratioP1;P1;durP2;ratioP2;P2;SDS_P1;SDS_P2;PMS_P1;PMS_P2;Temp;Humidity;BMP_temperature;BMP_pressure;BME280_temperature;BME280_humidity;BME280_pressure;Samples;Min_cycle;Max_cycle;Signal;HPM_P1;HPM_P2
2023/09/16 00:00:33;;;;;;;4.15;2.03;;;12.20;99.90;;;;;;5031678;28;20047;-67
2023/09/16 00:03:00;;;;;;;2.05;1.50;;;12.10;99.90;;;;;;5031127;28;20045;-67
2023/09/16 00:05:26;;;;;;;4.28;1.95;;;12.10;99.90;;;;;;5011995;28;20053;-68
2023/09/16 00:07:52;;;;;;;2.75;2.00;;;12.10;99.90;;;;;;5029041;28;20042;-67
2023/09/16 00:10:18;;;;;;;3.40;1.85;;;12.00;99.90;;;;;;5012032;28;20559;-67
2023/09/16 00:12:44;;;;;;;4.95;1.65;;;12.00;99.90;;;;;;5012153;28;20045;-67
2023/09/16 00:15:10;;;;;;;2.78;1.77;;;12.00;99.90;;;;;;5011658;28;20053;-68
2023/09/16 00:17:35;;;;;;;4.22;2.42;;;12.00;99.90;;;;;;5013587;28;20405;-67
2023/09/16 00:20:09;;;;;;;3.25;2.45;;;12.00;99.90;;;;;;5043566;28;20041;-67
2023/09/16 00:22:36;;;;;;;4.28;2.10;;;11.90;99.90;;;;;;5053065;28;20424;-67
2023/09/16 00:25:03;;;;;;;3.83;2.35;;;11.90;99.90;;;;;;5035682;28;20063;-67
2023/09/16 00:27:30;;;;;;;2.47;1.40;;;11.90;99.90;;;;;;5052558;28;20041;-67
2023/09/16 00:29:56;;;;;;;3.22;1.83;;;11.90;99.90;;;;;;5053431;28;20509;-67
2023/09/16 00:32:22;;;;;;;2.33;1.83;;;11.90;99.90;;;;;;5053306;28;20497;-67
2023/09/16 00:34:49;;;;;;;5.15;2.00;;;11.90;99.90;;;;;;5034810;28;20084;-67
2023/09/16 00:37:14;;;;;;;2.65;1.63;;;11.90;99.90;;;;;;5035728;28;20052;-67
2023/09/16 00:39:41;;;;;;;3.53;1.90;;;11.90;99.90;;;;;;5052976;28;20041;-67
2023/09/16 00:42:06;;;;;;;3.10;1.80;;;11.90;99.90;;;;;;5034829;28;20090;-67
2023/09/16 00:44:32;;;;;;;4.20;2.67;;;11.90;99.90;;;;;;5035425;28;20045;-67
2023/09/16 00:46:58;;;;;;;2.70;1.67;;;11.90;99.90;;;;;;5035104;28;20037;-67
2023/09/16 00:49:28;;;;;;;2.95;1.90;;;11.90;99.90;;;;;;5034676;28;20083;-67
2023/09/16 00:51:55;;;;;;;3.88;2.35;;;11.80;99.90;;;;;;5035357;28;20041;-67
2023/09/16 00:54:20;;;;;;;4.90;1.70;;;11.80;99.90;;;;;;5052689;28;20045;-67
2023/09/16 00:56:47;;;;;;;3.97;2.08;;;11.80;99.90;;;;;;5035350;28;20032;-67
2023/09/16 00:59:13;;;;;;;3.63;1.73;;;11.70;99.90;;;;;;5056635;28;20495;-67
2023/09/16 01:01:40;;;;;;;3.97;2.28;;;11.60;99.90;;;;;;5033042;28;20038;-67
2023/09/16 01:04:07;;;;;;;4.22;1.83;;;11.60;99.90;;;;;;5032167;28;20603;-67
2023/09/16 01:06:33;;;;;;;3.33;2.25;;;11.50;99.90;;;;;;5032701;28;20121;-68
2023/09/16 01:08:59;;;;;;;3.28;1.80;;;11.50;99.90;;;;;;5015225;28;20038;-67
2023/09/16 01:11:25;;;;;;;3.15;1.75;;;11.60;99.90;;;;;;5032120;28;20120;-67
2023/09/16 01:13:51;;;;;;;2.63;1.92;;;11.60;99.90;;;;;;5015021;28;20045;-67
2023/09/16 01:16:29;;;;;;;5.65;2.38;;;11.60;99.90;;;;;;5032153;28;20465;-67
2023/09/16 01:19:04;;;;;;;4.10;2.42;;;11.60;99.90;;;;;;5015636;28;20052;-67
2023/09/16 01:21:30;;;;;;;3.13;1.98;;;11.60;99.90;;;;;;5018284;28;20111;-67
2023/09/16 01:24:20;;;;;;;2.97;2.10;;;11.60;99.90;;;;;;5034008;28;20049;-67
2023/09/16 01:26:47;;;;;;;4.68;2.00;;;11.60;99.90;;;;;;5034573;28;20041;-67
2023/09/16 01:29:14;;;;;;;3.78;2.42;;;11.60;99.90;;;;;;5033273;28;20043;-67
2023/09/16 01:31:41;;;;;;;5.35;2.80;;;11.60;99.90;;;;;;5033639;28;20076;-67
2023/09/16 01:34:31;;;;;;;3.28;2.17;;;11.60;99.90;;;;;;5034448;28;20251;-67
2023/09/16 01:36:58;;;;;;;;;;;11.70;99.90;;;;;;5034867;28;20045;-67
2023/09/16 01:39:25;;;;;;;4.15;2.45;;;11.70;99.90;;;;;;5017320;28;19917;-67
2023/09/16 01:41:52;;;;;;;4.15;2.45;;;11.70;99.90;;;;;;5052060;28;20076;-67
2023/09/16 01:44:18;;;;;;;6.05;2.60;;;11.80;99.90;;;;;;5033774;28;20052;-67
2023/09/16 01:46:44;;;;;;;3.85;2.53;;;11.80;99.90;;;;;;5033937;28;20575;-67
2023/09/16 01:49:10;;;;;;;3.53;2.30;;;11.80;99.90;;;;;;5051879;28;20068;-67
2023/09/16 01:51:36;;;;;;;4.68;2.40;;;11.80;99.90;;;;;;5033317;28;20045;-67
2023/09/16 01:54:02;;;;;;;6.75;2.53;;;11.80;99.90;;;;;;5034348;28;20045;-67
2023/09/16 01:56:28;;;;;;;3.25;1.83;;;11.80;99.90;;;;;;5043182;28;20045;-67
2023/09/16 01:58:54;;;;;;;5.60;2.65;;;11.80;99.90;;;;;;5024859;28;20519;-68
2023/09/16 02:01:20;;;;;;;3.83;1.80;;;11.80;99.90;;;;;;5053696;28;20044;-67
2023/09/16 02:03:46;;;;;;;4.40;1.73;;;11.80;99.90;;;;;;5071787;28;20036;-67
2023/09/16 02:06:12;;;;;;;4.30;2.25;;;11.70;99.90;;;;;;5052976;28;20045;-67
2023/09/16 02:08:38;;;;;;;5.38;2.00;;;11.70;99.90;;;;;;5053977;28;20047;-67
2023/09/16 02:11:05;;;;;;;5.57;2.05;;;11.70;99.90;;;;;;5053641;28;20040;-67
2023/09/16 02:13:35;;;;;;;4.85;2.55;;;11.60;99.90;;;;;;5053367;28;20048;-67
2023/09/16 02:16:01;;;;;;;6.07;2.67;;;11.60;99.90;;;;;;5046126;28;20074;-67
2023/09/16 02:18:27;;;;;;;4.95;2.22;;;11.60;99.90;;;;;;5033689;28;20111;-67
2023/09/16 02:20:53;;;;;;;4.85;2.63;;;11.50;99.90;;;;;;5033049;28;20616;-67
2023/09/16 02:23:21;;;;;;;4.28;2.25;;;11.50;99.90;;;;;;5033863;28;20084;-67
2023/09/16 02:25:48;;;;;;;3.33;2.10;;;11.50;99.90;;;;;;5033292;28;20111;-67
2023/09/16 02:28:14;;;;;;;4.90;2.00;;;11.40;99.90;;;;;;5016194;28;20037;-67
2023/09/16 02:30:40;;;;;;;3.17;1.88;;;11.40;99.90;;;;;;5032846;28;20115;-67
2023/09/16 02:33:06;;;;;;;6.50;1.73;;;11.30;99.90;;;;;;5033323;28;20049;-67
2023/09/16 02:35:32;;;;;;;4.20;2.15;;;11.30;99.90;;;;;;5032521;28;20040;-67
2023/09/16 02:37:58;;;;;;;3.25;2.20;;;11.30;99.90;;;;;;5033300;28;20489;-67
2023/09/16 02:40:25;;;;;;;4.13;1.88;;;11.30;99.90;;;;;;5049974;28;20067;-67
2023/09/16 02:42:51;;;;;;;3.40;1.95;;;11.20;99.90;;;;;;5032879;28;20080;-67
2023/09/16 02:45:17;;;;;;;3.83;2.42;;;11.20;99.90;;;;;;5033004;28;20099;-67
2023/09/16 02:47:43;;;;;;;4.50;2.20;;;11.10;99.90;;;;;;5032346;28;20052;-67
2023/09/16 02:50:09;;;;;;;3.40;1.92;;;11.10;99.90;;;;;;5033435;28;20041;-67
2023/09/16 02:52:35;;;;;;;4.60;1.90;;;11.10;99.90;;;;;;5043068;28;20371;-67
2023/09/16 02:55:01;;;;;;;3.85;2.10;;;11.10;99.90;;;;;;5032617;28;20041;-67
2023/09/16 02:57:27;;;;;;;5.88;2.60;;;11.10;99.90;;;;;;5032986;28;20051;-67
2023/09/16 02:59:52;;;;;;;3.20;1.80;;;11.10;99.90;;;;;;5043471;28;20119;-67
2023/09/16 03:02:19;;;;;;;3.65;2.03;;;11.10;99.90;;;;;;5052293;28;20115;-67
2023/09/16 03:04:44;;;;;;;3.38;2.25;;;11.10;99.90;;;;;;5052825;28;20465;-67
2023/09/16 03:07:10;;;;;;;3.78;2.45;;;11.20;99.90;;;;;;5052684;28;20079;-67
2023/09/16 03:09:36;;;;;;;3.45;1.77;;;11.20;99.90;;;;;;5069635;28;20531;-67
2023/09/16 03:12:02;;;;;;;4.30;2.30;;;11.20;99.90;;;;;;5052559;28;20098;-67
2023/09/16 03:14:28;;;;;;;3.60;1.95;;;11.20;99.90;;;;;;5052880;28;20086;-67
2023/09/16 03:16:55;;;;;;;6.20;2.92;;;11.10;99.90;;;;;;5036747;28;20489;-67
2023/09/16 03:19:22;;;;;;;6.68;3.17;;;11.10;99.90;;;;;;5050317;28;20069;-68
2023/09/16 03:21:48;;;;;;;2.08;1.50;;;11.20;99.90;;;;;;5050340;28;20039;-67
2023/09/16 03:24:13;;;;;;;3.53;2.22;;;11.10;99.90;;;;;;5032009;28;20041;-67
2023/09/16 03:26:39;;;;;;;5.15;2.33;;;11.10;99.90;;;;;;5049995;28;20280;-67
2023/09/16 03:29:06;;;;;;;3.45;2.45;;;11.10;99.90;;;;;;5016006;28;20038;-67
2023/09/16 03:31:32;;;;;;;4.15;2.10;;;11.10;99.90;;;;;;5043538;28;20056;-67
2023/09/16 03:33:58;;;;;;;5.38;2.67;;;11.10;99.90;;;;;;5052181;28;20498;-67
2023/09/16 03:36:25;;;;;;;5.32;2.90;;;11.00;99.90;;;;;;5012018;28;20037;-67
2023/09/16 03:38:51;;;;;;;3.40;2.10;;;11.00;99.90;;;;;;5012072;28;20130;-67
2023/09/16 03:41:18;;;;;;;6.40;3.05;;;11.00;99.90;;;;;;5012594;28;20052;-67
2023/09/16 03:43:44;;;;;;;6.32;2.40;;;11.00;99.90;;;;;;5011920;28;20425;-67
2023/09/16 03:46:10;;;;;;;2.72;2.10;;;11.00;99.90;;;;;;5020312;28;20045;-67
2023/09/16 03:48:36;;;;;;;7.28;2.95;;;10.90;99.90;;;;;;5026235;28;20254;-67
2023/09/16 03:51:06;;;;;;;5.25;2.53;;;10.90;99.90;;;;;;5029032;28;20497;-68
2023/09/16 03:53:34;;;;;;;5.28;2.17;;;10.90;99.90;;;;;;5019725;28;20133;-67
2023/09/16 03:56:03;;;;;;;4.15;2.90;;;10.90;99.90;;;;;;5032039;28;20045;-67
2023/09/16 03:58:29;;;;;;;4.20;2.27;;;10.90;99.90;;;;;;5014860;28;20617;-68
2023/09/16 04:00:55;;;;;;;4.60;2.45;;;10.90;99.90;;;;;;5050921;28;20326;-67
2023/09/16 04:03:21;;;;;;;7.65;3.15;;;10.90;99.90;;;;;;5035216;28;20044;-68
2023/09/16 04:05:47;;;;;;;6.97;3.47;;;10.90;99.90;;;;;;5069017;28;20056;-68
2023/09/16 04:08:13;;;;;;;6.72;3.15;;;10.90;99.90;;;;;;5051612;28;20041;-67
2023/09/16 04:10:39;;;;;;;3.95;2.42;;;10.90;99.90;;;;;;5052002;28;20106;-68
2023/09/16 04:13:05;;;;;;;3.10;1.88;;;10.90;99.90;;;;;;5069125;28;20040;-68
2023/09/16 04:15:31;;;;;;;4.47;1.65;;;11.00;99.90;;;;;;5048078;28;20428;-68
2023/09/16 04:17:57;;;;;;;4.47;2.20;;;10.90;99.90;;;;;;5049456;28;20132;-68
2023/09/16 04:20:24;;;;;;;3.30;1.80;;;10.90;99.90;;;;;;5031041;28;20045;-67
2023/09/16 04:22:50;;;;;;;5.25;2.25;;;10.90;99.90;;;;;;5031754;28;20071;-68
2023/09/16 04:25:16;;;;;;;3.25;2.10;;;10.90;99.90;;;;;;5014698;28;20053;-67
2023/09/16 04:27:42;;;;;;;3.05;1.88;;;10.90;99.90;;;;;;5020042;28;20120;-67
2023/09/16 04:30:08;;;;;;;2.50;1.83;;;10.90;99.90;;;;;;5011871;28;20041;-67
2023/09/16 04:32:34;;;;;;;3.20;2.05;;;10.80;99.90;;;;;;5010847;28;20141;-67
2023/09/16 04:35:00;;;;;;;2.97;1.90;;;10.80;99.90;;;;;;5011804;28;20095;-67
2023/09/16 04:37:27;;;;;;;3.33;2.47;;;10.80;99.90;;;;;;5029263;28;20434;-68
2023/09/16 04:39:54;;;;;;;3.33;1.90;;;10.80;99.90;;;;;;5027753;28;20120;-68
2023/09/16 04:42:20;;;;;;;2.20;1.85;;;10.80;99.90;;;;;;5011921;28;20077;-68
2023/09/16 04:44:48;;;;;;;3.92;2.03;;;10.80;99.90;;;;;;5016650;28;20049;-68
2023/09/16 04:47:14;;;;;;;3.78;2.28;;;10.70;99.90;;;;;;5030607;28;20408;-68
2023/09/16 04:49:40;;;;;;;4.03;1.98;;;10.70;99.90;;;;;;5031495;28;20043;-68
2023/09/16 04:52:06;;;;;;;3.55;2.15;;;10.70;99.90;;;;;;5015404;28;20040;-68
2023/09/16 04:54:32;;;;;;;3.95;1.98;;;10.70;99.90;;;;;;5030540;28;20520;-68
2023/09/16 04:57:01;;;;;;;5.30;2.33;;;10.70;99.90;;;;;;5031472;28;20045;-68
2023/09/16 04:59:31;;;;;;;2.75;1.58;;;10.70;99.90;;;;;;5021640;28;20394;-68
2023/09/16 05:01:57;;;;;;;2.60;1.63;;;10.70;99.90;;;;;;5042611;28;20055;-68
2023/09/16 05:04:23;;;;;;;2.63;1.98;;;10.70;99.90;;;;;;5053953;28;20369;-68
2023/09/16 05:06:49;;;;;;;2.70;1.70;;;10.70;99.90;;;;;;5054582;28;20047;-68
2023/09/16 05:09:15;;;;;;;3.65;2.05;;;10.70;99.90;;;;;;5054183;28;20040;-68
2023/09/16 05:11:43;;;;;;;2.40;1.67;;;10.70;99.90;;;;;;5069620;28;20135;-68
2023/09/16 05:14:10;;;;;;;3.28;2.03;;;10.70;99.90;;;;;;5034042;28;20052;-68
2023/09/16 05:16:36;;;;;;;3.47;1.27;;;10.60;99.90;;;;;;5033271;28;20060;-68
2023/09/16 05:19:02;;;;;;;3.35;1.95;;;10.60;99.90;;;;;;5033707;28;20045;-68
2023/09/16 05:21:28;;;;;;;3.42;2.03;;;10.60;99.90;;;;;;5033080;28;20068;-68
2023/09/16 05:23:54;;;;;;;2.13;1.77;;;10.60;99.90;;;;;;5022784;28;20124;-68
2023/09/16 05:26:20;;;;;;;3.15;2.42;;;10.60;99.90;;;;;;5030170;28;20056;-68
2023/09/16 05:28:46;;;;;;;5.63;2.65;;;10.60;99.90;;;;;;5012857;28;20072;-68
2023/09/16 05:31:12;;;;;;;4.35;2.40;;;10.60;99.90;;;;;;5031088;28;20466;-68
2023/09/16 05:33:38;;;;;;;5.60;2.15;;;10.60;99.90;;;;;;5013738;28;20042;-68
2023/09/16 05:36:04;;;;;;;3.97;2.42;;;10.70;99.90;;;;;;5030804;28;20104;-68
2023/09/16 05:38:30;;;;;;;4.22;2.50;;;10.70;99.90;;;;;;5029860;28;20124;-68
2023/09/16 05:40:56;;;;;;;2.20;1.45;;;10.70;99.90;;;;;;5013472;28;20133;-68
2023/09/16 05:43:24;;;;;;;3.70;1.70;;;10.80;99.90;;;;;;5013144;28;20041;-68
2023/09/16 05:45:50;;;;;;;4.03;2.33;;;10.80;99.90;;;;;;5010387;28;20323;-68
2023/09/16 05:48:17;;;;;;;3.38;1.85;;;10.80;99.90;;;;;;5017012;28;20041;-66
2023/09/16 05:50:43;;;;;;;3.50;1.85;;;10.80;99.90;;;;;;5032618;28;20475;-67
2023/09/16 05:53:09;;;;;;;3.42;1.67;;;10.90;99.90;;;;;;5050814;28;20080;-67
2023/09/16 05:55:39;;;;;;;2.72;2.08;;;10.90;99.90;;;;;;5032996;28;20564;-67
2023/09/16 05:58:06;;;;;;;3.15;2.05;;;10.90;99.90;;;;;;5032409;28;20121;-67
2023/09/16 06:00:33;;;;;;;3.10;1.60;;;11.00;99.90;;;;;;5065992;28;20044;-67
2023/09/16 06:02:58;;;;;;;2.67;1.65;;;11.00;99.90;;;;;;5070014;28;20080;-67
2023/09/16 06:05:29;;;;;;;2.78;1.90;;;11.10;99.90;;;;;;5052127;28;20085;-66
2023/09/16 06:07:55;;;;;;;4.10;2.10;;;11.10;99.90;;;;;;5044472;28;20098;-66
2023/09/16 06:10:21;;;;;;;3.85;2.35;;;11.10;99.90;;;;;;5052674;28;20040;-66
2023/09/16 06:12:47;;;;;;;3.58;2.00;;;11.20;99.90;;;;;;5041265;28;20452;-66
2023/09/16 06:15:13;;;;;;;3.05;2.13;;;11.30;99.90;;;;;;5048553;28;20052;-66
2023/09/16 06:17:39;;;;;;;3.30;2.25;;;11.40;99.90;;;;;;5052303;28;20048;-66
2023/09/16 06:20:05;;;;;;;3.85;2.67;;;11.60;99.90;;;;;;5049640;28;20399;-66
2023/09/16 06:22:31;;;;;;;5.22;2.67;;;11.90;99.90;;;;;;5031455;28;20034;-66
2023/09/16 06:24:58;;;;;;;6.93;2.72;;;12.30;99.90;;;;;;5029322;28;20049;-67
2023/09/16 06:27:24;;;;;;;5.55;3.75;;;12.70;99.90;;;;;;5013842;28;20067;-67
2023/09/16 06:29:52;;;;;;;6.65;3.65;;;13.00;99.90;;;;;;5013338;28;20056;-67
2023/09/16 06:32:19;;;;;;;5.97;3.25;;;13.30;99.90;;;;;;5029518;28;20620;-66
2023/09/16 06:34:45;;;;;;;6.13;3.30;;;13.70;99.90;;;;;;5033097;28;20505;-67
2023/09/16 06:37:11;;;;;;;4.88;3.03;;;13.80;99.90;;;;;;5051124;28;20041;-68
2023/09/16 06:39:37;;;;;;;4.78;2.83;;;13.80;99.90;;;;;;5032238;28;20098;-67
2023/09/16 06:42:04;;;;;;;4.70;2.58;;;13.70;99.90;;;;;;5032774;28;20052;-67
2023/09/16 06:44:31;;;;;;;7.30;3.15;;;13.60;99.90;;;;;;5031540;28;20481;-67
2023/09/16 06:46:57;;;;;;;4.78;3.00;;;13.50;99.90;;;;;;5031350;28;20128;-67
2023/09/16 06:49:23;;;;;;;5.88;2.75;;;13.50;99.90;;;;;;5050201;28;20037;-67
2023/09/16 06:51:49;;;;;;;4.07;2.85;;;13.50;99.90;;;;;;5049900;28;20052;-67
2023/09/16 06:54:15;;;;;;;4.97;2.83;;;13.50;99.90;;;;;;5031164;28;20037;-67
2023/09/16 06:56:41;;;;;;;4.05;2.63;;;13.50;99.90;;;;;;5031940;28;20045;-67
2023/09/16 06:59:07;;;;;;;5.18;3.00;;;13.50;99.90;;;;;;5018345;28;20494;-67
2023/09/16 07:01:34;;;;;;;4.90;2.50;;;13.50;99.90;;;;;;5036518;28;20108;-67
2023/09/16 07:04:00;;;;;;;6.07;3.45;;;13.60;99.90;;;;;;5051683;28;20048;-67
2023/09/16 07:06:26;;;;;;;6.55;3.38;;;13.70;99.90;;;;;;5051171;28;20150;-67
2023/09/16 07:08:52;;;;;;;5.72;3.85;;;13.80;99.90;;;;;;5051657;28;20490;-67
2023/09/16 07:11:20;;;;;;;6.53;3.30;;;13.90;99.90;;;;;;5052056;28;20197;-67
2023/09/16 07:13:46;;;;;;;7.53;3.70;;;14.00;99.90;;;;;;5028993;28;20490;-67
2023/09/16 07:16:13;;;;;;;6.07;3.33;;;14.10;99.90;;;;;;5012396;28;20041;-67
2023/09/16 07:18:39;;;;;;;9.13;4.05;;;14.30;99.90;;;;;;5011758;28;20530;-67
2023/09/16 07:21:06;;;;;;;6.65;3.47;;;14.40;99.90;;;;;;5011127;28;20042;-69
2023/09/16 07:23:32;;;;;;;5.82;3.72;;;14.50;99.90;;;;;;5011929;28;20289;-68
2023/09/16 07:25:59;;;;;;;7.22;3.58;;;14.60;99.90;;;;;;5029172;28;20482;-68
2023/09/16 07:28:27;;;;;;;7.05;3.92;;;14.80;99.90;;;;;;5011330;28;20076;-69
2023/09/16 07:30:53;;;;;;;6.30;2.90;;;14.90;99.90;;;;;;5011593;28;20059;-68
2023/09/16 07:33:54;;;;;;;6.68;3.38;;;15.00;99.90;;;;;;5036429;28;20064;-69
2023/09/16 07:36:20;;;;;;;7.95;3.58;;;15.20;99.90;;;;;;5029720;28;20107;-69
2023/09/16 07:38:46;;;;;;;7.85;4.45;;;15.40;99.90;;;;;;5038338;28;20397;-69
2023/09/16 07:41:12;;;;;;;6.82;4.00;;;15.50;99.90;;;;;;5049718;28;20040;-69
2023/09/16 07:43:38;;;;;;;5.82;3.63;;;15.70;99.90;;;;;;5049422;28;20029;-69
2023/09/16 07:46:04;;;;;;;5.63;3.03;;;15.80;99.90;;;;;;5031451;28;20049;-69
2023/09/16 07:48:31;;;;;;;5.18;3.38;;;15.90;99.90;;;;;;5031304;28;20043;-69
2023/09/16 07:50:57;;;;;;;5.88;3.63;;;16.10;99.90;;;;;;5029687;28;20055;-69
2023/09/16 07:53:24;;;;;;;7.22;3.53;;;16.30;99.90;;;;;;5031711;28;20125;-69
2023/09/16 07:55:50;;;;;;;4.90;2.95;;;16.40;99.90;;;;;;5031094;28;20137;-69
2023/09/16 07:58:15;;;;;;;7.63;4.15;;;16.50;99.90;;;;;;5031772;28;20045;-69
2023/09/16 08:00:41;;;;;;;7.35;3.03;;;16.70;99.90;;;;;;5040946;28;20044;-69
2023/09/16 08:03:07;;;;;;;8.48;4.13;;;16.90;99.90;;;;;;5011381;28;20409;-69
2023/09/16 08:05:33;;;;;;;7.78;3.80;;;17.10;99.90;;;;;;5031087;28;20136;-69
2023/09/16 08:07:58;;;;;;;8.23;4.03;;;17.30;99.90;;;;;;5015190;28;20069;-69
2023/09/16 08:10:24;;;;;;;5.88;3.22;;;17.90;99.90;;;;;;5030958;28;20037;-69
2023/09/16 08:12:50;;;;;;;5.22;3.40;;;18.60;99.90;;;;;;5018957;28;20164;-70
2023/09/16 08:15:16;;;;;;;7.25;3.40;;;19.40;99.90;;;;;;5012087;28;20037;-70
2023/09/16 08:17:41;;;;;;;5.32;3.10;;;20.20;99.90;;;;;;5029149;28;20509;-70
2023/09/16 08:20:08;;;;;;;4.63;2.67;;;20.90;99.90;;;;;;5011867;28;20176;-70
2023/09/16 08:22:35;;;;;;;6.00;2.83;;;21.50;99.90;;;;;;5028473;28;20049;-70
2023/09/16 08:25:02;;;;;;;6.47;2.70;;;22.20;99.90;;;;;;5010991;28;20493;-70
2023/09/16 08:27:28;;;;;;;4.57;2.80;;;22.50;99.90;;;;;;5011746;28;20116;-70
2023/09/16 08:29:54;;;;;;;4.90;2.30;;;22.80;99.90;;;;;;5029185;28;20128;-70
2023/09/16 08:32:22;;;;;;;6.05;2.58;;;23.20;99.90;;;;;;5011042;28;20505;-70
2023/09/16 08:34:50;;;;;;;3.60;1.95;;;23.60;99.90;;;;;;5029235;28;20143;-71
2023/09/16 08:37:16;;;;;;;4.10;2.45;;;24.20;99.90;;;;;;5011326;28;20040;-71
2023/09/16 08:39:42;;;;;;;3.97;2.67;;;24.60;99.90;;;;;;5031782;28;20509;-70
2023/09/16 08:42:27;;;;;;;4.68;2.65;;;24.90;99.90;;;;;;5016839;28;20127;-70
2023/09/16 08:44:53;;;;;;;4.78;2.95;;;25.30;99.90;;;;;;5020585;28;20048;-70
2023/09/16 08:47:28;;;;;;;4.72;3.00;;;25.60;99.90;;;;;;5035388;28;20044;-71
2023/09/16 08:50:01;;;;;;;5.93;3.03;;;25.60;99.90;;;;;;5018761;28;20051;-71
2023/09/16 08:52:32;;;;;;;7.60;3.17;;;25.60;99.90;;;;;;5052338;28;20106;-71
2023/09/16 08:54:59;;;;;;;5.13;2.78;;;25.80;99.90;;;;;;5015217;28;20120;-71
2023/09/16 08:57:25;;;;;;;4.60;2.42;;;26.20;99.90;;;;;;5031878;28;20041;-71
2023/09/16 08:59:52;;;;;;;5.20;2.75;;;26.60;99.90;;;;;;5035012;28;20056;-71
2023/09/16 09:02:18;;;;;;;4.30;2.28;;;26.80;99.90;;;;;;5072661;28;20032;-71
2023/09/16 09:04:44;;;;;;;4.32;2.03;;;27.20;99.90;;;;;;5054722;28;20059;-71
2023/09/16 09:07:11;;;;;;;5.05;2.70;;;27.40;99.90;;;;;;5072083;28;20037;-71
2023/09/16 09:09:37;;;;;;;3.15;1.85;;;27.50;99.90;;;;;;5017206;28;20095;-72
2023/09/16 09:12:04;;;;;;;2.63;1.60;;;27.60;99.90;;;;;;5014903;28;20071;-71
2023/09/16 09:14:31;;;;;;;4.15;1.98;;;27.70;99.90;;;;;;5030598;28;20053;-71
2023/09/16 09:17:00;;;;;;;2.88;1.63;;;27.80;99.90;;;;;;5015061;28;20048;-72
2023/09/16 09:19:26;;;;;;;3.72;2.03;;;28.00;99.90;;;;;;5014427;28;20053;-72
2023/09/16 09:21:56;;;;;;;4.00;2.13;;;28.20;99.90;;;;;;5032293;28;20092;-71
2023/09/16 09:24:22;;;;;;;3.67;1.70;;;28.30;99.90;;;;;;5014779;28;20561;-71
2023/09/16 09:26:47;;;;;;;3.15;1.75;;;28.50;99.90;;;;;;5016503;28;20128;-71
2023/09/16 09:29:13;;;;;;;5.05;2.28;;;28.70;99.90;;;;;;5034359;28;20068;-71
2023/09/16 09:31:40;;;;;;;4.18;2.10;;;28.80;99.90;;;;;;5034073;28;20053;-71
2023/09/16 09:34:15;;;;;;;2.70;1.67;;;28.90;99.90;;;;;;5050378;28;20055;-71
2023/09/16 09:36:41;;;;;;;4.50;1.60;;;29.20;99.70;;;;;;5034294;28;20088;-71
2023/09/16 09:39:09;;;;;;;4.25;1.40;;;29.50;99.90;;;;;;5051627;28;20044;-71
2023/09/16 09:42:01;;;;;;;3.00;1.63;;;29.50;99.90;;;;;;5033774;28;20044;-71
2023/09/16 09:44:27;;;;;;;4.20;1.88;;;29.50;96.00;;;;;;5048958;28;20619;-71
2023/09/16 09:46:53;;;;;;;3.83;1.67;;;29.60;98.10;;;;;;5048356;28;20528;-71
2023/09/16 09:49:19;;;;;;;3.00;1.55;;;29.80;97.10;;;;;;5052479;28;20080;-72
2023/09/16 09:51:48;;;;;;;3.75;1.40;;;29.90;97.40;;;;;;5053585;28;20481;-71
2023/09/16 09:54:14;;;;;;;3.33;1.60;;;30.10;97.20;;;;;;5039339;28;20080;-71
2023/09/16 09:56:40;;;;;;;4.55;1.73;;;30.30;97.00;;;;;;5033575;28;20076;-71
2023/09/16 09:59:06;;;;;;;2.45;1.40;;;30.60;95.90;;;;;;5020187;28;20493;-71
2023/09/16 10:01:32;;;;;;;2.58;1.38;;;30.50;95.90;;;;;;5053153;28;20136;-72
2023/09/16 10:04:02;;;;;;;3.80;1.30;;;30.20;95.70;;;;;;5050661;28;20058;-72
2023/09/16 10:06:29;;;;;;;3.08;1.48;;;30.30;95.20;;;;;;5013834;28;20493;-71
2023/09/16 10:08:55;;;;;;;3.75;1.50;;;30.40;93.50;;;;;;5023973;28;20041;-72
2023/09/16 10:11:21;;;;;;;4.35;1.50;;;30.40;94.00;;;;;;5033591;28;20094;-71
2023/09/16 10:13:49;;;;;;;3.58;1.42;;;30.50;94.20;;;;;;5051581;28;20045;-71
2023/09/16 10:16:15;;;;;;;2.80;1.40;;;31.00;93.40;;;;;;5049960;28;20037;-72
2023/09/16 10:18:42;;;;;;;3.30;1.50;;;31.40;92.30;;;;;;5033340;28;20668;-70
2023/09/16 10:21:08;;;;;;;3.55;1.55;;;31.60;91.80;;;;;;5033397;28;20130;-70
2023/09/16 10:23:34;;;;;;;3.33;1.50;;;31.60;90.30;;;;;;5032811;28;20091;-70
2023/09/16 10:26:00;;;;;;;3.38;1.40;;;31.80;90.30;;;;;;5050963;28;20401;-70
2023/09/16 10:28:25;;;;;;;3.53;1.73;;;31.90;90.10;;;;;;5033269;28;20047;-70
2023/09/16 10:30:52;;;;;;;2.60;1.45;;;31.60;89.10;;;;;;5015935;28;20154;-70
2023/09/16 10:33:20;;;;;;;4.38;1.35;;;31.50;89.40;;;;;;5033210;28;20112;-70
2023/09/16 10:35:46;;;;;;;2.83;1.33;;;31.60;89.20;;;;;;5033237;28;20041;-70
2023/09/16 10:38:12;;;;;;;2.92;1.20;;;31.40;89.00;;;;;;5032545;28;20036;-70
2023/09/16 10:40:39;;;;;;;2.92;1.35;;;31.20;88.80;;;;;;5033268;28;20064;-70
2023/09/16 10:43:05;;;;;;;1.98;1.23;;;30.90;88.30;;;;;;5033522;28;20124;-70
2023/09/16 10:45:31;;;;;;;1.98;1.10;;;30.70;88.30;;;;;;5021243;28;20076;-70
2023/09/16 10:48:01;;;;;;;1.38;0.77;;;30.80;88.70;;;;;;5024175;28;20441;-70
2023/09/16 10:50:30;;;;;;;2.38;1.38;;;31.10;89.30;;;;;;5050228;28;20128;-70
2023/09/16 10:53:22;;;;;;;4.40;1.50;;;31.20;86.30;;;;;;5050667;28;20036;-69
2023/09/16 10:56:02;;;;;;;2.35;1.40;;;31.00;81.20;;;;;;5033000;28;20041;-69
2023/09/16 10:58:46;;;;;;;3.33;1.13;;;30.80;85.00;;;;;;5049797;28;20473;-69
2023/09/16 11:01:18;;;;;;;2.13;1.15;;;30.30;83.60;;;;;;5061012;28;20041;-70
2023/09/16 11:03:51;;;;;;;3.25;1.55;;;29.70;85.10;;;;;;5016289;28;20059;-69
2023/09/16 11:06:17;;;;;;;1.90;1.13;;;29.60;84.20;;;;;;5032089;28;20056;-69
2023/09/16 11:08:43;;;;;;;2.45;1.40;;;29.10;84.90;;;;;;5032332;28;20049;-69
2023/09/16 11:11:10;;;;;;;1.55;0.80;;;28.80;84.90;;;;;;5032400;28;20037;-70
2023/09/16 11:13:36;;;;;;;1.35;0.70;;;28.70;86.40;;;;;;5031970;28;20378;-70
2023/09/16 11:16:02;;;;;;;2.20;1.10;;;28.90;86.60;;;;;;5032765;28;20076;-70
2023/09/16 11:18:31;;;;;;;2.30;1.00;;;28.70;85.50;;;;;;5031897;28;20537;-69
2023/09/16 11:20:57;;;;;;;2.42;0.98;;;28.30;86.00;;;;;;5032350;28;20056;-70
2023/09/16 11:23:24;;;;;;;1.90;0.73;;;27.90;85.30;;;;;;5032217;28;20045;-69
2023/09/16 11:25:50;;;;;;;2.22;0.70;;;27.60;85.20;;;;;;5031664;28;20055;-69
2023/09/16 11:28:18;;;;;;;1.50;0.80;;;27.50;86.90;;;;;;5015722;28;20041;-69
2023/09/16 11:30:58;;;;;;;2.05;1.08;;;27.40;87.50;;;;;;5031840;28;20116;-68
2023/09/16 11:33:37;;;;;;;1.73;0.90;;;27.40;87.20;;;;;;5049351;28;20052;-69
2023/09/16 11:36:06;;;;;;;1.95;0.90;;;27.30;86.40;;;;;;5032399;28;20135;-69
2023/09/16 11:38:32;;;;;;;3.05;1.23;;;27.20;86.70;;;;;;5032823;28;20067;-70
2023/09/16 11:41:09;;;;;;;4.88;1.50;;;27.10;88.00;;;;;;5026780;28;20517;-68
2023/09/16 11:43:39;;;;;;;3.15;0.90;;;26.80;85.50;;;;;;5012463;28;20045;-68
2023/09/16 11:46:07;;;;;;;2.30;1.10;;;26.30;86.80;;;;;;4999487;28;20627;-69
2023/09/16 11:48:57;;;;;;;1.90;0.93;;;26.10;88.70;;;;;;5031409;28;20713;-69
2023/09/16 11:51:24;;;;;;;2.15;1.15;;;26.00;90.00;;;;;;5049684;28;20363;-69
2023/09/16 11:53:52;;;;;;;1.63;0.57;;;25.80;90.40;;;;;;5031026;28;20041;-69
2023/09/16 11:56:21;;;;;;;2.60;0.88;;;25.70;90.90;;;;;;5032090;28;20040;-69
2023/09/16 11:58:47;;;;;;;1.45;0.90;;;25.90;90.70;;;;;;5032962;28;20080;-69
2023/09/16 12:01:18;;;;;;;2.15;1.00;;;26.20;90.50;;;;;;5041869;28;20451;-69
2023/09/16 12:03:44;;;;;;;2.15;0.85;;;26.40;90.00;;;;;;5049582;28;20039;-69
2023/09/16 12:06:11;;;;;;;1.92;0.80;;;26.60;89.40;;;;;;5031513;28;20447;-69
2023/09/16 12:08:40;;;;;;;1.33;0.60;;;27.00;89.10;;;;;;5031100;28;20067;-69
2023/09/16 12:11:06;;;;;;;1.23;0.57;;;27.30;88.50;;;;;;5031530;28;20041;-69
2023/09/16 12:13:32;;;;;;;1.77;0.80;;;27.50;87.00;;;;;;5031219;28;20037;-69
2023/09/16 12:15:58;;;;;;;1.80;0.82;;;27.50;86.10;;;;;;5030997;28;20554;-68
2023/09/16 12:18:24;;;;;;;2.47;0.80;;;27.40;84.70;;;;;;5015346;28;20032;-68
2023/09/16 12:20:52;;;;;;;2.85;0.90;;;27.20;85.20;;;;;;5031698;28;20049;-69
2023/09/16 12:23:30;;;;;;;1.85;0.88;;;27.10;87.30;;;;;;5030947;28;20048;-68
2023/09/16 12:25:57;;;;;;;1.33;0.60;;;26.90;86.20;;;;;;5031185;28;20080;-68
2023/09/16 12:28:24;;;;;;;3.15;0.88;;;26.70;87.00;;;;;;5030852;28;20507;-69
2023/09/16 12:30:57;;;;;;;2.28;1.02;;;26.30;87.10;;;;;;5031346;28;20064;-69
2023/09/16 12:33:56;;;;;;;1.80;0.70;;;26.10;87.60;;;;;;5049146;28;20555;-69
2023/09/16 12:36:28;;;;;;;;;;;26.00;90.00;;;;;;4998272;28;20619;-69
2023/09/16 12:39:00;;;;;;;2.45;1.00;;;26.10;88.90;;;;;;5012857;28;19920;-69
2023/09/16 12:41:27;;;;;;;3.05;0.68;;;26.20;89.70;;;;;;5011772;28;20055;-68
2023/09/16 12:43:55;;;;;;;2.50;0.93;;;26.40;90.00;;;;;;5011210;28;20053;-68
2023/09/16 12:46:22;;;;;;;1.60;0.90;;;26.80;89.30;;;;;;5011439;28;20053;-69
2023/09/16 12:48:51;;;;;;;1.58;0.60;;;26.80;87.70;;;;;;5029265;28;20287;-68